PWSweather.com
Personal Weather Stations
Station Observations
METEACHIET
Pas De Calais, AchietLeGrandFR

Pas De CalaisAchietLeGrandFR

Lat: 50.1302778, Lon: 2.78333333

Elevation: 406.8

Station Type: Davis VP2

http://meteo-achiet.shost.ca/index.php

Latest ConditionsUpdated 4:00:00 AM GMT+01:01 Monday, Feb 18, 2019
Currently Today's Max Today's Min Today's Average
Temperature 37.8°F3.2°C 42.8°F6.0°C 37.8°F3.2°C 40.1°F4.5°C
Dew Point 33.9°F1.1°C 36.7°F2.6°C 33.9°F1.1°C 35.4°F1.9°C
Winds Calm Calm 1.0 mph -1.6 kmh - - 0.1 mph 0.2 kmh
Wind Gusts 1.0 mph1.6 kmh 3.0 mph4.8 kmh - -
Humidity 86% 86% 79% 83%
Pressure 30.08 in1018.6 mb 30.09 in1019.0 mb 30.08 in1018.6 mb -
Hour Temp Dew Point Humidity Winds Wind Gusts Pressure Precip Precip Rate Daily Precip Total
04:00 AM 37.8°F3.2°C 33.9°F1.1°C 86% Calm Calm 1.0 mph1.6 kmh 30.08 in1018.6 mb 0.00 in0.0 mm 0.00 in0.0 mm 0.00 in0.0 mm
03:50 AM 38.1°F3.4°C 34.3°F1.3°C 86% Calm Calm -- 30.08 in1018.6 mb 0.00 in0.0 mm 0.00 in0.0 mm 0.00 in0.0 mm
03:40 AM 38.5°F3.6°C 34.4°F1.3°C 85% Calm Calm 2.0 mph3.2 kmh 30.08 in1018.6 mb 0.00 in0.0 mm 0.00 in0.0 mm 0.00 in0.0 mm
03:30 AM 38.7°F3.7°C 34.5°F1.4°C 85% Calm Calm 1.0 mph1.6 kmh 30.08 in1018.6 mb 0.00 in0.0 mm 0.00 in0.0 mm 0.00 in0.0 mm
03:20 AM 39.0°F3.9°C 34.9°F1.6°C 85% Calm Calm 1.0 mph1.6 kmh 30.08 in1018.6 mb 0.00 in0.0 mm 0.00 in0.0 mm 0.00 in0.0 mm
03:10 AM 39.0°F3.9°C 34.9°F1.6°C 85% Calm Calm 1.0 mph1.6 kmh 30.08 in1018.6 mb 0.00 in0.0 mm 0.00 in0.0 mm 0.00 in0.0 mm
03:00 AM 39.2°F4.0°C 35.1°F1.7°C 85% Calm Calm 1.0 mph1.6 kmh 30.08 in1018.6 mb 0.00 in0.0 mm 0.00 in0.0 mm 0.00 in0.0 mm
02:50 AM 39.4°F4.1°C 34.9°F1.6°C 84% Calm Calm 2.0 mph3.2 kmh 30.09 in1019.0 mb 0.00 in0.0 mm 0.00 in0.0 mm 0.00 in0.0 mm
02:40 AM 39.6°F4.2°C 35.1°F1.7°C 84% Calm Calm 2.0 mph3.2 kmh 30.09 in1019.0 mb 0.00 in0.0 mm 0.00 in0.0 mm 0.00 in0.0 mm
02:30 AM 39.7°F4.3°C 35.3°F1.8°C 84% Calm Calm 2.0 mph3.2 kmh 30.09 in1019.0 mb 0.00 in0.0 mm 0.00 in0.0 mm 0.00 in0.0 mm
02:20 AM 39.9°F4.4°C 35.5°F1.9°C 84% Calm Calm 1.0 mph1.6 kmh 30.09 in1019.0 mb 0.00 in0.0 mm 0.00 in0.0 mm 0.00 in0.0 mm
02:10 AM 40.1°F4.5°C 35.4°F1.9°C 83% Calm Calm 1.0 mph1.6 kmh 30.08 in1018.6 mb 0.00 in0.0 mm 0.00 in0.0 mm 0.00 in0.0 mm
02:00 AM 40.5°F4.7°C 35.7°F2.1°C 83% Calm Calm 1.0 mph1.6 kmh 30.09 in1019.0 mb 0.00 in0.0 mm 0.00 in0.0 mm 0.00 in0.0 mm
01:50 AM 40.6°F4.8°C 35.9°F2.2°C 83% 1.0 mph S1.6 kmh S 3.0 mph4.8 kmh 30.09 in1019.0 mb 0.00 in0.0 mm 0.00 in0.0 mm 0.00 in0.0 mm
01:40 AM 40.6°F4.8°C 35.9°F2.2°C 83% Calm Calm 2.0 mph3.2 kmh 30.09 in1019.0 mb 0.00 in0.0 mm 0.00 in0.0 mm 0.00 in0.0 mm
01:30 AM 40.5°F4.7°C 35.7°F2.1°C 83% 1.0 mph S1.6 kmh S 2.0 mph3.2 kmh 30.09 in1019.0 mb 0.00 in0.0 mm 0.00 in0.0 mm 0.00 in0.0 mm
01:20 AM 40.5°F4.7°C 35.7°F2.1°C 83% Calm Calm 1.0 mph1.6 kmh 30.09 in1019.0 mb 0.00 in0.0 mm 0.00 in0.0 mm 0.00 in0.0 mm
01:10 AM 40.5°F4.7°C 35.7°F2.1°C 83% Calm Calm 2.0 mph3.2 kmh 30.09 in1019.0 mb 0.00 in0.0 mm 0.00 in0.0 mm 0.00 in0.0 mm
01:00 AM 40.5°F4.7°C 35.7°F2.1°C 83% Calm Calm 1.0 mph1.6 kmh 30.09 in1019.0 mb 0.00 in0.0 mm 0.00 in0.0 mm 0.00 in0.0 mm
12:50 AM 40.8°F4.9°C 35.7°F2.1°C 82% Calm Calm 1.0 mph1.6 kmh 30.09 in1019.0 mb 0.00 in0.0 mm 0.00 in0.0 mm 0.00 in0.0 mm
12:40 AM 41.2°F5.1°C 36.1°F2.3°C 82% Calm Calm 1.0 mph1.6 kmh 30.09 in1019.0 mb 0.00 in0.0 mm 0.00 in0.0 mm 0.00 in0.0 mm
12:30 AM 41.5°F5.3°C 36.1°F2.3°C 81% 1.0 mph S1.6 kmh S 2.0 mph3.2 kmh 30.09 in1019.0 mb 0.00 in0.0 mm 0.00 in0.0 mm 0.00 in0.0 mm
12:20 AM 42.1°F5.6°C 36.4°F2.4°C 80% Calm Calm 2.0 mph3.2 kmh 30.09 in1019.0 mb 0.00 in0.0 mm 0.00 in0.0 mm 0.00 in0.0 mm
12:10 AM 42.4°F5.8°C 36.7°F2.6°C 80% Calm Calm 1.0 mph1.6 kmh 30.09 in1019.0 mb 0.00 in0.0 mm 0.00 in0.0 mm 0.00 in0.0 mm
12:00 AM 42.8°F6.0°C 36.7°F2.6°C 79% Calm Calm 1.0 mph1.6 kmh 30.09 in1019.0 mb 0.00 in0.0 mm 0.00 in0.0 mm 0.00 in0.0 mm